This is the latest recevied weather packets stored in our database for station/object KELD. If no packets are shown the sender has not sent any weather packets the latest 1 day(s).
| Time | Temp. | Humidity | Pressure | Rain* | Wind** | Luminosity | Snow |
|---|---|---|---|---|---|---|---|
| 1778022811 | 27.78° C | 65% | 1005.8 hPa | - | 4.92 m/s, 200° | - | - |
| 1778022327 | 27.78° C | 65% | 1005.8 hPa | - | 4.92 m/s, 200° | - | - |
| 1778021612 | 27.78° C | 65% | 1006.1 hPa | - | 6.71 m/s, 190° | - | - |
| 1778021007 | 27.78° C | 65% | 1006.1 hPa | - | 6.71 m/s, 190° | - | - |
| 1778020408 | 27.78° C | 65% | 1006.1 hPa | - | 6.71 m/s, 190° | - | - |
| 1778019807 | 27.78° C | 65% | 1006.1 hPa | - | 6.71 m/s, 190° | - | - |
| 1778019208 | 27.78° C | 65% | 1006.1 hPa | - | 6.71 m/s, 190° | - | - |
| 1778018729 | 27.78° C | 65% | 1006.1 hPa | - | 6.71 m/s, 190° | - | - |
| 1778018011 | 26.67° C | 69% | 1006.8 hPa | - | 5.36 m/s, 200° | - | - |
| 1778017411 | 26.67° C | 69% | 1006.8 hPa | - | 5.36 m/s, 200° | - | - |
| 1778016811 | 26.67° C | 69% | 1006.8 hPa | - | 5.36 m/s, 200° | - | - |
| 1778016207 | 26.67° C | 69% | 1006.8 hPa | - | 5.36 m/s, 200° | - | - |
| 1778015609 | 26.67° C | 69% | 1006.8 hPa | - | 5.36 m/s, 200° | - | - |
| 1778015009 | 26.67° C | 69% | 1006.8 hPa | - | 5.36 m/s, 200° | - | - |
| 1778014407 | 26.67° C | 65% | 1006.4 hPa | - | 6.71 m/s, 170° | - | - |
| 1778013811 | 26.67° C | 65% | 1006.4 hPa | - | 6.71 m/s, 170° | - | - |
| 1778013209 | 26.67° C | 65% | 1006.4 hPa | - | 4.47 m/s, 190° | - | - |
| 1778012613 | 26.67° C | 69% | 1006.1 hPa | - | 5.81 m/s, 190° | - | - |
| 1778012008 | 26.67° C | 69% | 1006.1 hPa | - | 5.81 m/s, 190° | - | - |
| 1778011407 | 26.67° C | 69% | 1006.1 hPa | - | 5.81 m/s, 190° | - | - |
| 1778010810 | 25° C | 73% | 1007.5 hPa | - | 4.47 m/s, 190° | - | - |
| 1778010210 | 25° C | 73% | 1007.5 hPa | - | 4.47 m/s, 190° | - | - |
| 1778009607 | 25° C | 73% | 1007.5 hPa | - | 4.47 m/s, 190° | - | - |
| 1778009009 | 25° C | 73% | 1007.5 hPa | - | 4.47 m/s, 190° | - | - |
| 1778008409 | 25° C | 73% | 1007.5 hPa | - | 4.47 m/s, 190° | - | - |
* Rain since midnight (hover to see other rain measurements)
** Current wind speed in m/s (hover to see current wind gust speed)